sensor_id;sensor_type;location;lat;lon;timestamp;P1;durP1;ratioP1;P2;durP2;ratioP2
52104;SDS011;38103;42.776;23.112;2022-09-01T00:01:25;22.27;;;12.25;;
52104;SDS011;38103;42.776;23.112;2022-09-01T00:03:51;23.45;;;12.43;;
52104;SDS011;38103;42.776;23.112;2022-09-01T00:06:18;21.08;;;12.45;;
52104;SDS011;38103;42.776;23.112;2022-09-01T00:08:50;22.13;;;12.35;;
52104;SDS011;38103;42.776;23.112;2022-09-01T00:11:17;23.60;;;13.27;;
52104;SDS011;38103;42.776;23.112;2022-09-01T00:13:44;19.92;;;11.77;;
52104;SDS011;38103;42.776;23.112;2022-09-01T00:16:09;22.83;;;12.07;;
52104;SDS011;38103;42.776;23.112;2022-09-01T00:18:38;36.28;;;15.25;;
52104;SDS011;38103;42.776;23.112;2022-09-01T00:21:06;22.08;;;13.13;;
52104;SDS011;38103;42.776;23.112;2022-09-01T00:23:32;25.52;;;13.32;;
52104;SDS011;38103;42.776;23.112;2022-09-01T00:25:58;21.15;;;12.95;;
52104;SDS011;38103;42.776;23.112;2022-09-01T00:28:23;25.13;;;13.60;;
52104;SDS011;38103;42.776;23.112;2022-09-01T00:30:49;21.17;;;13.15;;
52104;SDS011;38103;42.776;23.112;2022-09-01T00:33:14;24.00;;;13.30;;
52104;SDS011;38103;42.776;23.112;2022-09-01T00:35:40;23.65;;;12.65;;
52104;SDS011;38103;42.776;23.112;2022-09-01T00:38:06;24.70;;;14.10;;
52104;SDS011;38103;42.776;23.112;2022-09-01T00:40:31;24.90;;;14.00;;
52104;SDS011;38103;42.776;23.112;2022-09-01T00:42:57;27.23;;;15.68;;
52104;SDS011;38103;42.776;23.112;2022-09-01T00:45:24;29.30;;;16.13;;
52104;SDS011;38103;42.776;23.112;2022-09-01T00:47:50;27.48;;;14.38;;
52104;SDS011;38103;42.776;23.112;2022-09-01T00:50:17;23.10;;;14.85;;
52104;SDS011;38103;42.776;23.112;2022-09-01T00:52:45;28.33;;;15.43;;
52104;SDS011;38103;42.776;23.112;2022-09-01T00:55:16;26.90;;;15.27;;
52104;SDS011;38103;42.776;23.112;2022-09-01T00:57:47;29.50;;;16.52;;
52104;SDS011;38103;42.776;23.112;2022-09-01T01:02:42;24.33;;;14.48;;
52104;SDS011;38103;42.776;23.112;2022-09-01T01:05:09;23.27;;;13.38;;
52104;SDS011;38103;42.776;23.112;2022-09-01T01:07:35;22.00;;;12.80;;
52104;SDS011;38103;42.776;23.112;2022-09-01T01:10:07;23.05;;;13.23;;
52104;SDS011;38103;42.776;23.112;2022-09-01T01:12:36;22.73;;;13.88;;
52104;SDS011;38103;42.776;23.112;2022-09-01T01:15:05;22.33;;;12.98;;
52104;SDS011;38103;42.776;23.112;2022-09-01T01:17:32;23.45;;;12.90;;
52104;SDS011;38103;42.776;23.112;2022-09-01T01:19:59;24.92;;;13.93;;
52104;SDS011;38103;42.776;23.112;2022-09-01T01:25:27;29.58;;;14.10;;
52104;SDS011;38103;42.776;23.112;2022-09-01T01:28:05;24.80;;;14.20;;
52104;SDS011;38103;42.776;23.112;2022-09-01T01:30:42;24.35;;;13.75;;
52104;SDS011;38103;42.776;23.112;2022-09-01T01:33:12;22.75;;;13.77;;
52104;SDS011;38103;42.776;23.112;2022-09-01T01:35:38;23.60;;;14.15;;
52104;SDS011;38103;42.776;23.112;2022-09-01T01:38:03;24.15;;;14.27;;
52104;SDS011;38103;42.776;23.112;2022-09-01T01:40:31;25.55;;;15.30;;
52104;SDS011;38103;42.776;23.112;2022-09-01T01:42:57;23.83;;;13.18;;
52104;SDS011;38103;42.776;23.112;2022-09-01T01:45:24;22.10;;;13.43;;
52104;SDS011;38103;42.776;23.112;2022-09-01T01:47:50;23.38;;;13.68;;
52104;SDS011;38103;42.776;23.112;2022-09-01T01:50:22;26.67;;;14.73;;
52104;SDS011;38103;42.776;23.112;2022-09-01T01:52:50;25.02;;;14.90;;
52104;SDS011;38103;42.776;23.112;2022-09-01T01:55:16;21.50;;;12.57;;
52104;SDS011;38103;42.776;23.112;2022-09-01T01:57:43;26.80;;;15.38;;
52104;SDS011;38103;42.776;23.112;2022-09-01T02:00:14;27.00;;;15.18;;
52104;SDS011;38103;42.776;23.112;2022-09-01T02:02:45;27.55;;;14.35;;
52104;SDS011;38103;42.776;23.112;2022-09-01T02:05:26;26.02;;;14.70;;
52104;SDS011;38103;42.776;23.112;2022-09-01T02:07:54;26.17;;;15.55;;
52104;SDS011;38103;42.776;23.112;2022-09-01T02:10:27;22.83;;;14.10;;
52104;SDS011;38103;42.776;23.112;2022-09-01T02:13:06;25.70;;;15.40;;
52104;SDS011;38103;42.776;23.112;2022-09-01T02:15:34;26.38;;;15.45;;
52104;SDS011;38103;42.776;23.112;2022-09-01T02:18:12;26.52;;;15.30;;
52104;SDS011;38103;42.776;23.112;2022-09-01T02:20:41;30.90;;;15.63;;
52104;SDS011;38103;42.776;23.112;2022-09-01T02:23:07;28.80;;;16.60;;
52104;SDS011;38103;42.776;23.112;2022-09-01T02:25:41;31.10;;;17.83;;
52104;SDS011;38103;42.776;23.112;2022-09-01T02:28:09;27.00;;;15.88;;
52104;SDS011;38103;42.776;23.112;2022-09-01T02:30:39;26.45;;;15.98;;
52104;SDS011;38103;42.776;23.112;2022-09-01T02:33:09;24.00;;;14.27;;
52104;SDS011;38103;42.776;23.112;2022-09-01T02:35:35;25.33;;;15.43;;
52104;SDS011;38103;42.776;23.112;2022-09-01T02:38:03;24.77;;;14.52;;
52104;SDS011;38103;42.776;23.112;2022-09-01T02:40:29;24.52;;;14.60;;
52104;SDS011;38103;42.776;23.112;2022-09-01T02:42:58;24.70;;;14.75;;
52104;SDS011;38103;42.776;23.112;2022-09-01T02:45:26;26.35;;;15.73;;
52104;SDS011;38103;42.776;23.112;2022-09-01T02:47:53;30.42;;;16.08;;
52104;SDS011;38103;42.776;23.112;2022-09-01T02:50:20;28.65;;;15.82;;
52104;SDS011;38103;42.776;23.112;2022-09-01T02:52:48;24.48;;;14.57;;
52104;SDS011;38103;42.776;23.112;2022-09-01T02:55:16;21.58;;;13.45;;
52104;SDS011;38103;42.776;23.112;2022-09-01T02:57:45;26.25;;;14.45;;
52104;SDS011;38103;42.776;23.112;2022-09-01T03:00:12;24.05;;;14.50;;
52104;SDS011;38103;42.776;23.112;2022-09-01T03:02:50;23.80;;;14.70;;
52104;SDS011;38103;42.776;23.112;2022-09-01T03:05:20;23.77;;;13.60;;
52104;SDS011;38103;42.776;23.112;2022-09-01T03:07:51;26.25;;;15.68;;
52104;SDS011;38103;42.776;23.112;2022-09-01T03:10:21;25.38;;;15.55;;
52104;SDS011;38103;42.776;23.112;2022-09-01T03:12:51;28.33;;;15.77;;
52104;SDS011;38103;42.776;23.112;2022-09-01T03:15:17;30.05;;;15.63;;
52104;SDS011;38103;42.776;23.112;2022-09-01T03:17:42;29.85;;;16.80;;
52104;SDS011;38103;42.776;23.112;2022-09-01T03:20:09;30.17;;;16.90;;
52104;SDS011;38103;42.776;23.112;2022-09-01T03:22:36;29.83;;;17.02;;
52104;SDS011;38103;42.776;23.112;2022-09-01T03:25:02;27.42;;;16.98;;
52104;SDS011;38103;42.776;23.112;2022-09-01T03:27:28;27.02;;;16.30;;
52104;SDS011;38103;42.776;23.112;2022-09-01T03:29:53;27.98;;;16.80;;
52104;SDS011;38103;42.776;23.112;2022-09-01T03:32:19;29.10;;;17.65;;
52104;SDS011;38103;42.776;23.112;2022-09-01T03:34:44;27.10;;;16.33;;
52104;SDS011;38103;42.776;23.112;2022-09-01T03:37:10;28.50;;;16.83;;
52104;SDS011;38103;42.776;23.112;2022-09-01T03:39:36;28.25;;;17.05;;
52104;SDS011;38103;42.776;23.112;2022-09-01T03:42:02;30.23;;;16.63;;
52104;SDS011;38103;42.776;23.112;2022-09-01T03:44:28;28.20;;;16.70;;
52104;SDS011;38103;42.776;23.112;2022-09-01T03:46:53;31.58;;;17.80;;
52104;SDS011;38103;42.776;23.112;2022-09-01T03:49:19;34.22;;;17.33;;
52104;SDS011;38103;42.776;23.112;2022-09-01T03:51:51;33.33;;;18.95;;
52104;SDS011;38103;42.776;23.112;2022-09-01T03:54:21;39.10;;;19.98;;
52104;SDS011;38103;42.776;23.112;2022-09-01T03:56:54;44.75;;;20.02;;
52104;SDS011;38103;42.776;23.112;2022-09-01T03:59:23;39.55;;;19.98;;
52104;SDS011;38103;42.776;23.112;2022-09-01T04:01:50;38.50;;;20.02;;
52104;SDS011;38103;42.776;23.112;2022-09-01T04:04:15;40.60;;;18.40;;
52104;SDS011;38103;42.776;23.112;2022-09-01T04:06:42;46.80;;;18.45;;
52104;SDS011;38103;42.776;23.112;2022-09-01T04:09:08;39.78;;;18.58;;
52104;SDS011;38103;42.776;23.112;2022-09-01T04:11:35;47.58;;;18.77;;
52104;SDS011;38103;42.776;23.112;2022-09-01T04:14:02;31.52;;;16.73;;
52104;SDS011;38103;42.776;23.112;2022-09-01T04:16:29;35.60;;;16.33;;
52104;SDS011;38103;42.776;23.112;2022-09-01T04:19:15;32.38;;;14.35;;
52104;SDS011;38103;42.776;23.112;2022-09-01T04:21:49;30.33;;;15.82;;
52104;SDS011;38103;42.776;23.112;2022-09-01T04:24:17;37.03;;;16.55;;
52104;SDS011;38103;42.776;23.112;2022-09-01T04:26:43;37.97;;;16.05;;
52104;SDS011;38103;42.776;23.112;2022-09-01T04:29:13;29.85;;;15.73;;
52104;SDS011;38103;42.776;23.112;2022-09-01T04:31:39;32.03;;;16.23;;
52104;SDS011;38103;42.776;23.112;2022-09-01T04:34:06;29.20;;;16.70;;
52104;SDS011;38103;42.776;23.112;2022-09-01T04:36:41;34.00;;;17.17;;
52104;SDS011;38103;42.776;23.112;2022-09-01T04:39:08;34.05;;;16.90;;
52104;SDS011;38103;42.776;23.112;2022-09-01T04:41:36;29.60;;;16.52;;
52104;SDS011;38103;42.776;23.112;2022-09-01T04:44:05;28.45;;;17.02;;
52104;SDS011;38103;42.776;23.112;2022-09-01T04:46:32;31.38;;;16.98;;
52104;SDS011;38103;42.776;23.112;2022-09-01T04:49:00;30.85;;;15.43;;
52104;SDS011;38103;42.776;23.112;2022-09-01T04:51:30;33.42;;;16.75;;
52104;SDS011;38103;42.776;23.112;2022-09-01T04:53:57;35.28;;;15.85;;
52104;SDS011;38103;42.776;23.112;2022-09-01T04:56:23;39.00;;;16.73;;
52104;SDS011;38103;42.776;23.112;2022-09-01T04:58:51;43.45;;;17.70;;
52104;SDS011;38103;42.776;23.112;2022-09-01T05:01:22;30.85;;;17.55;;
52104;SDS011;38103;42.776;23.112;2022-09-01T05:03:49;35.40;;;16.33;;
52104;SDS011;38103;42.776;23.112;2022-09-01T05:06:26;28.10;;;16.50;;
52104;SDS011;38103;42.776;23.112;2022-09-01T05:08:53;25.00;;;15.27;;
52104;SDS011;38103;42.776;23.112;2022-09-01T05:11:21;36.20;;;16.10;;
52104;SDS011;38103;42.776;23.112;2022-09-01T05:13:48;25.92;;;14.88;;
52104;SDS011;38103;42.776;23.112;2022-09-01T05:16:15;30.67;;;13.40;;
52104;SDS011;38103;42.776;23.112;2022-09-01T05:18:46;37.63;;;14.48;;
52104;SDS011;38103;42.776;23.112;2022-09-01T05:21:14;25.13;;;15.52;;
52104;SDS011;38103;42.776;23.112;2022-09-01T05:23:42;29.77;;;15.70;;
52104;SDS011;38103;42.776;23.112;2022-09-01T05:26:16;29.08;;;16.08;;
52104;SDS011;38103;42.776;23.112;2022-09-01T05:28:44;30.77;;;16.25;;
52104;SDS011;38103;42.776;23.112;2022-09-01T05:31:10;30.02;;;16.63;;
52104;SDS011;38103;42.776;23.112;2022-09-01T05:33:37;36.47;;;17.23;;
52104;SDS011;38103;42.776;23.112;2022-09-01T05:36:09;32.72;;;18.45;;
52104;SDS011;38103;42.776;23.112;2022-09-01T05:38:35;35.40;;;20.02;;
52104;SDS011;38103;42.776;23.112;2022-09-01T05:41:02;41.20;;;17.10;;
52104;SDS011;38103;42.776;23.112;2022-09-01T05:43:32;40.72;;;18.90;;
52104;SDS011;38103;42.776;23.112;2022-09-01T05:45:59;38.95;;;19.10;;
52104;SDS011;38103;42.776;23.112;2022-09-01T05:48:25;44.78;;;18.73;;
52104;SDS011;38103;42.776;23.112;2022-09-01T05:50:55;46.55;;;20.27;;
52104;SDS011;38103;42.776;23.112;2022-09-01T05:53:23;40.15;;;19.45;;
52104;SDS011;38103;42.776;23.112;2022-09-01T05:55:55;41.20;;;20.38;;
52104;SDS011;38103;42.776;23.112;2022-09-01T05:58:22;44.92;;;21.65;;
52104;SDS011;38103;42.776;23.112;2022-09-01T06:00:52;46.45;;;22.50;;
52104;SDS011;38103;42.776;23.112;2022-09-01T06:03:20;36.13;;;19.55;;
52104;SDS011;38103;42.776;23.112;2022-09-01T06:05:47;41.00;;;19.67;;
52104;SDS011;38103;42.776;23.112;2022-09-01T06:08:17;39.60;;;20.40;;
52104;SDS011;38103;42.776;23.112;2022-09-01T06:10:45;36.33;;;20.08;;
52104;SDS011;38103;42.776;23.112;2022-09-01T06:13:12;31.15;;;18.15;;
52104;SDS011;38103;42.776;23.112;2022-09-01T06:15:40;32.88;;;18.10;;
52104;SDS011;38103;42.776;23.112;2022-09-01T06:18:08;30.63;;;17.88;;
52104;SDS011;38103;42.776;23.112;2022-09-01T06:20:39;35.63;;;17.48;;
52104;SDS011;38103;42.776;23.112;2022-09-01T06:23:11;32.90;;;18.88;;
52104;SDS011;38103;42.776;23.112;2022-09-01T06:25:48;28.23;;;16.60;;
52104;SDS011;38103;42.776;23.112;2022-09-01T06:28:13;28.27;;;16.30;;
52104;SDS011;38103;42.776;23.112;2022-09-01T06:30:40;29.02;;;15.75;;
52104;SDS011;38103;42.776;23.112;2022-09-01T06:33:06;27.27;;;16.33;;
52104;SDS011;38103;42.776;23.112;2022-09-01T06:35:35;26.48;;;16.63;;
52104;SDS011;38103;42.776;23.112;2022-09-01T06:38:03;27.70;;;16.67;;
52104;SDS011;38103;42.776;23.112;2022-09-01T06:40:30;29.48;;;16.98;;
52104;SDS011;38103;42.776;23.112;2022-09-01T06:42:56;27.92;;;15.95;;
52104;SDS011;38103;42.776;23.112;2022-09-01T06:45:26;26.88;;;15.85;;
52104;SDS011;38103;42.776;23.112;2022-09-01T06:47:51;28.75;;;19.25;;
52104;SDS011;38103;42.776;23.112;2022-09-01T06:50:18;24.23;;;14.82;;
52104;SDS011;38103;42.776;23.112;2022-09-01T06:52:46;26.55;;;16.25;;
52104;SDS011;38103;42.776;23.112;2022-09-01T06:55:28;25.95;;;16.23;;
52104;SDS011;38103;42.776;23.112;2022-09-01T06:57:55;23.77;;;14.52;;
52104;SDS011;38103;42.776;23.112;2022-09-01T07:00:22;25.00;;;14.73;;
52104;SDS011;38103;42.776;23.112;2022-09-01T07:02:54;23.33;;;14.45;;
52104;SDS011;38103;42.776;23.112;2022-09-01T07:05:21;25.88;;;15.43;;
52104;SDS011;38103;42.776;23.112;2022-09-01T07:43:28;25.50;;;15.25;;
52104;SDS011;38103;42.776;23.112;2022-09-01T07:45:55;27.50;;;14.95;;
52104;SDS011;38103;42.776;23.112;2022-09-01T07:48:24;24.17;;;15.13;;
52104;SDS011;38103;42.776;23.112;2022-09-01T07:50:52;25.00;;;15.65;;
52104;SDS011;38103;42.776;23.112;2022-09-01T07:53:24;27.10;;;15.32;;
52104;SDS011;38103;42.776;23.112;2022-09-01T07:55:52;22.90;;;13.80;;
52104;SDS011;38103;42.776;23.112;2022-09-01T07:58:20;25.10;;;16.13;;
52104;SDS011;38103;42.776;23.112;2022-09-01T08:00:48;24.27;;;14.80;;
52104;SDS011;38103;42.776;23.112;2022-09-01T08:03:16;29.00;;;14.20;;
52104;SDS011;38103;42.776;23.112;2022-09-01T08:05:43;21.77;;;15.00;;
52104;SDS011;38103;42.776;23.112;2022-09-01T08:08:09;22.13;;;13.65;;
52104;SDS011;38103;42.776;23.112;2022-09-01T08:10:38;21.65;;;12.85;;
52104;SDS011;38103;42.776;23.112;2022-09-01T08:13:06;20.58;;;13.18;;
52104;SDS011;38103;42.776;23.112;2022-09-01T08:15:32;25.50;;;13.40;;
52104;SDS011;38103;42.776;23.112;2022-09-01T08:17:57;20.52;;;13.55;;
52104;SDS011;38103;42.776;23.112;2022-09-01T08:20:23;22.80;;;13.23;;
52104;SDS011;38103;42.776;23.112;2022-09-01T08:22:48;22.88;;;14.10;;
52104;SDS011;38103;42.776;23.112;2022-09-01T08:25:13;21.27;;;13.65;;
52104;SDS011;38103;42.776;23.112;2022-09-01T08:27:40;28.45;;;14.15;;
52104;SDS011;38103;42.776;23.112;2022-09-01T08:30:06;20.70;;;13.40;;
52104;SDS011;38103;42.776;23.112;2022-09-01T08:32:35;22.17;;;13.50;;
52104;SDS011;38103;42.776;23.112;2022-09-01T08:35:01;24.90;;;14.40;;
52104;SDS011;38103;42.776;23.112;2022-09-01T08:37:28;25.08;;;14.15;;
52104;SDS011;38103;42.776;23.112;2022-09-01T08:39:54;23.25;;;14.02;;
52104;SDS011;38103;42.776;23.112;2022-09-01T08:42:32;19.63;;;12.57;;
52104;SDS011;38103;42.776;23.112;2022-09-01T08:45:03;21.80;;;12.93;;
52104;SDS011;38103;42.776;23.112;2022-09-01T08:47:37;22.92;;;13.85;;
52104;SDS011;38103;42.776;23.112;2022-09-01T09:06:16;18.15;;;12.40;;
52104;SDS011;38103;42.776;23.112;2022-09-01T09:16:48;19.02;;;11.75;;
52104;SDS011;38103;42.776;23.112;2022-09-01T09:19:33;19.67;;;12.70;;
52104;SDS011;38103;42.776;23.112;2022-09-01T09:22:03;18.15;;;11.00;;
52104;SDS011;38103;42.776;23.112;2022-09-01T09:27:18;18.40;;;10.07;;
52104;SDS011;38103;42.776;23.112;2022-09-01T09:29:51;19.38;;;10.20;;
52104;SDS011;38103;42.776;23.112;2022-09-01T09:32:17;18.77;;;10.05;;
52104;SDS011;38103;42.776;23.112;2022-09-01T09:34:43;20.33;;;10.90;;
52104;SDS011;38103;42.776;23.112;2022-09-01T09:40:10;17.30;;;10.82;;
52104;SDS011;38103;42.776;23.112;2022-09-01T09:42:39;20.17;;;10.48;;
52104;SDS011;38103;42.776;23.112;2022-09-01T09:47:53;19.65;;;11.00;;
52104;SDS011;38103;42.776;23.112;2022-09-01T09:50:35;19.20;;;11.68;;
52104;SDS011;38103;42.776;23.112;2022-09-01T09:53:13;18.42;;;10.85;;
52104;SDS011;38103;42.776;23.112;2022-09-01T09:55:51;20.42;;;10.57;;
52104;SDS011;38103;42.776;23.112;2022-09-01T09:58:38;17.15;;;10.13;;
52104;SDS011;38103;42.776;23.112;2022-09-01T10:01:14;19.20;;;10.30;;
52104;SDS011;38103;42.776;23.112;2022-09-01T10:03:54;21.35;;;10.10;;
52104;SDS011;38103;42.776;23.112;2022-09-01T10:06:29;16.20;;;10.13;;
52104;SDS011;38103;42.776;23.112;2022-09-01T10:09:00;17.63;;;10.07;;
52104;SDS011;38103;42.776;23.112;2022-09-01T10:14:15;17.25;;;10.15;;
52104;SDS011;38103;42.776;23.112;2022-09-01T10:16:44;15.90;;;9.80;;
52104;SDS011;38103;42.776;23.112;2022-09-01T10:19:12;20.80;;;9.40;;
52104;SDS011;38103;42.776;23.112;2022-09-01T10:21:40;19.30;;;9.93;;
52104;SDS011;38103;42.776;23.112;2022-09-01T10:24:21;15.70;;;9.52;;
52104;SDS011;38103;42.776;23.112;2022-09-01T10:26:54;21.45;;;10.10;;
52104;SDS011;38103;42.776;23.112;2022-09-01T10:29:25;20.25;;;10.32;;
52104;SDS011;38103;42.776;23.112;2022-09-01T10:31:56;15.85;;;9.63;;
52104;SDS011;38103;42.776;23.112;2022-09-01T10:34:24;17.30;;;9.57;;
52104;SDS011;38103;42.776;23.112;2022-09-01T10:36:54;19.67;;;9.95;;
52104;SDS011;38103;42.776;23.112;2022-09-01T10:39:19;14.63;;;9.05;;
52104;SDS011;38103;42.776;23.112;2022-09-01T10:41:46;17.45;;;9.88;;
52104;SDS011;38103;42.776;23.112;2022-09-01T10:44:24;16.55;;;9.68;;
52104;SDS011;38103;42.776;23.112;2022-09-01T10:46:59;15.20;;;9.38;;
52104;SDS011;38103;42.776;23.112;2022-09-01T10:51:56;14.82;;;8.73;;
52104;SDS011;38103;42.776;23.112;2022-09-01T10:57:04;14.50;;;9.13;;
52104;SDS011;38103;42.776;23.112;2022-09-01T10:59:41;17.10;;;10.13;;
52104;SDS011;38103;42.776;23.112;2022-09-01T11:06:58;18.35;;;9.20;;
52104;SDS011;38103;42.776;23.112;2022-09-01T11:09:36;19.50;;;10.20;;
52104;SDS011;38103;42.776;23.112;2022-09-01T11:14:56;18.20;;;10.40;;
52104;SDS011;38103;42.776;23.112;2022-09-01T11:23:03;15.27;;;9.73;;
52104;SDS011;38103;42.776;23.112;2022-09-01T11:25:39;18.15;;;9.55;;
52104;SDS011;38103;42.776;23.112;2022-09-01T11:36:29;17.42;;;9.07;;
52104;SDS011;38103;42.776;23.112;2022-09-01T11:38:58;17.17;;;9.65;;
52104;SDS011;38103;42.776;23.112;2022-09-01T11:41:34;20.08;;;9.68;;
52104;SDS011;38103;42.776;23.112;2022-09-01T11:44:22;17.27;;;9.85;;
52104;SDS011;38103;42.776;23.112;2022-09-01T11:47:10;16.50;;;9.82;;
52104;SDS011;38103;42.776;23.112;2022-09-01T11:49:54;19.73;;;9.57;;
52104;SDS011;38103;42.776;23.112;2022-09-01T11:52:26;16.65;;;9.60;;
52104;SDS011;38103;42.776;23.112;2022-09-01T11:54:54;17.15;;;10.15;;
52104;SDS011;38103;42.776;23.112;2022-09-01T11:57:30;17.38;;;9.77;;
52104;SDS011;38103;42.776;23.112;2022-09-01T12:00:00;20.33;;;9.88;;
52104;SDS011;38103;42.776;23.112;2022-09-01T12:02:31;15.88;;;9.38;;
52104;SDS011;38103;42.776;23.112;2022-09-01T12:04:58;17.65;;;9.23;;
52104;SDS011;38103;42.776;23.112;2022-09-01T12:09:57;15.68;;;9.93;;
52104;SDS011;38103;42.776;23.112;2022-09-01T12:14:57;17.02;;;9.75;;
52104;SDS011;38103;42.776;23.112;2022-09-01T12:17:25;19.58;;;9.27;;
52104;SDS011;38103;42.776;23.112;2022-09-01T12:19:51;18.58;;;9.60;;
52104;SDS011;38103;42.776;23.112;2022-09-01T12:22:18;16.90;;;9.35;;
52104;SDS011;38103;42.776;23.112;2022-09-01T12:24:52;17.00;;;9.88;;
52104;SDS011;38103;42.776;23.112;2022-09-01T12:27:19;19.38;;;9.43;;
52104;SDS011;38103;42.776;23.112;2022-09-01T12:29:47;18.10;;;9.60;;
52104;SDS011;38103;42.776;23.112;2022-09-01T12:32:14;16.05;;;8.63;;
52104;SDS011;38103;42.776;23.112;2022-09-01T12:34:57;16.40;;;9.15;;
52104;SDS011;38103;42.776;23.112;2022-09-01T12:37:25;20.85;;;9.93;;
52104;SDS011;38103;42.776;23.112;2022-09-01T12:39:53;18.30;;;9.20;;
52104;SDS011;38103;42.776;23.112;2022-09-01T12:42:28;18.60;;;10.98;;
52104;SDS011;38103;42.776;23.112;2022-09-01T12:45:05;24.25;;;11.85;;
52104;SDS011;38103;42.776;23.112;2022-09-01T12:52:31;16.00;;;9.27;;
52104;SDS011;38103;42.776;23.112;2022-09-01T13:00:04;15.27;;;8.45;;
52104;SDS011;38103;42.776;23.112;2022-09-01T13:02:37;14.93;;;9.02;;
52104;SDS011;38103;42.776;23.112;2022-09-01T13:07:57;17.15;;;9.02;;
52104;SDS011;38103;42.776;23.112;2022-09-01T13:10:25;16.88;;;9.10;;
52104;SDS011;38103;42.776;23.112;2022-09-01T13:12:54;18.33;;;9.02;;
52104;SDS011;38103;42.776;23.112;2022-09-01T13:15:22;17.52;;;9.25;;
52104;SDS011;38103;42.776;23.112;2022-09-01T13:17:49;13.93;;;8.07;;
52104;SDS011;38103;42.776;23.112;2022-09-01T13:20:15;15.80;;;8.98;;
52104;SDS011;38103;42.776;23.112;2022-09-01T13:22:40;16.70;;;9.20;;
52104;SDS011;38103;42.776;23.112;2022-09-01T13:25:06;17.85;;;9.02;;
52104;SDS011;38103;42.776;23.112;2022-09-01T13:27:34;18.67;;;8.85;;
52104;SDS011;38103;42.776;23.112;2022-09-01T13:30:01;17.20;;;8.68;;
52104;SDS011;38103;42.776;23.112;2022-09-01T13:32:29;14.77;;;8.68;;
52104;SDS011;38103;42.776;23.112;2022-09-01T13:34:54;20.30;;;9.20;;
52104;SDS011;38103;42.776;23.112;2022-09-01T13:37:20;16.98;;;9.10;;
52104;SDS011;38103;42.776;23.112;2022-09-01T13:39:46;17.38;;;9.20;;
52104;SDS011;38103;42.776;23.112;2022-09-01T13:42:12;17.30;;;9.32;;
52104;SDS011;38103;42.776;23.112;2022-09-01T13:44:38;19.98;;;8.48;;
52104;SDS011;38103;42.776;23.112;2022-09-01T13:47:03;15.77;;;9.60;;
52104;SDS011;38103;42.776;23.112;2022-09-01T13:49:29;18.05;;;9.20;;
52104;SDS011;38103;42.776;23.112;2022-09-01T13:51:55;19.15;;;10.57;;
52104;SDS011;38103;42.776;23.112;2022-09-01T13:54:20;18.42;;;8.70;;
52104;SDS011;38103;42.776;23.112;2022-09-01T13:56:46;20.70;;;9.82;;
52104;SDS011;38103;42.776;23.112;2022-09-01T13:59:11;20.70;;;9.98;;
52104;SDS011;38103;42.776;23.112;2022-09-01T14:01:37;17.10;;;9.30;;
52104;SDS011;38103;42.776;23.112;2022-09-01T14:04:04;20.77;;;10.25;;
52104;SDS011;38103;42.776;23.112;2022-09-01T14:06:30;18.13;;;9.68;;
52104;SDS011;38103;42.776;23.112;2022-09-01T14:08:56;16.35;;;9.10;;
52104;SDS011;38103;42.776;23.112;2022-09-01T14:11:23;17.42;;;10.00;;
52104;SDS011;38103;42.776;23.112;2022-09-01T14:13:49;17.40;;;9.27;;
52104;SDS011;38103;42.776;23.112;2022-09-01T14:16:14;17.67;;;9.63;;
52104;SDS011;38103;42.776;23.112;2022-09-01T14:18:40;21.48;;;9.93;;
52104;SDS011;38103;42.776;23.112;2022-09-01T14:21:10;16.92;;;10.63;;
52104;SDS011;38103;42.776;23.112;2022-09-01T14:23:36;19.77;;;10.85;;
52104;SDS011;38103;42.776;23.112;2022-09-01T14:26:06;20.60;;;10.07;;
52104;SDS011;38103;42.776;23.112;2022-09-01T14:28:32;17.63;;;10.27;;
52104;SDS011;38103;42.776;23.112;2022-09-01T14:30:58;17.92;;;10.68;;
52104;SDS011;38103;42.776;23.112;2022-09-01T14:33:24;19.58;;;10.23;;
52104;SDS011;38103;42.776;23.112;2022-09-01T14:35:51;18.20;;;9.65;;
52104;SDS011;38103;42.776;23.112;2022-09-01T14:38:17;20.92;;;10.30;;
52104;SDS011;38103;42.776;23.112;2022-09-01T14:40:42;19.10;;;9.60;;
52104;SDS011;38103;42.776;23.112;2022-09-01T14:43:12;17.42;;;10.52;;
52104;SDS011;38103;42.776;23.112;2022-09-01T14:45:38;22.60;;;11.00;;
52104;SDS011;38103;42.776;23.112;2022-09-01T14:48:05;20.05;;;10.45;;
52104;SDS011;38103;42.776;23.112;2022-09-01T14:50:33;19.10;;;10.10;;
52104;SDS011;38103;42.776;23.112;2022-09-01T14:52:59;19.85;;;10.90;;
52104;SDS011;38103;42.776;23.112;2022-09-01T14:55:26;20.63;;;10.80;;
52104;SDS011;38103;42.776;23.112;2022-09-01T14:57:53;21.52;;;10.90;;
52104;SDS011;38103;42.776;23.112;2022-09-01T15:00:19;19.27;;;10.82;;
52104;SDS011;38103;42.776;23.112;2022-09-01T15:02:46;18.25;;;10.57;;
52104;SDS011;38103;42.776;23.112;2022-09-01T15:05:12;17.02;;;9.32;;
52104;SDS011;38103;42.776;23.112;2022-09-01T15:07:38;15.25;;;8.52;;
52104;SDS011;38103;42.776;23.112;2022-09-01T15:10:05;18.95;;;8.68;;
52104;SDS011;38103;42.776;23.112;2022-09-01T15:12:33;16.23;;;9.27;;
52104;SDS011;38103;42.776;23.112;2022-09-01T15:14:59;15.45;;;8.00;;
52104;SDS011;38103;42.776;23.112;2022-09-01T15:17:26;16.90;;;8.50;;
52104;SDS011;38103;42.776;23.112;2022-09-01T15:19:52;17.40;;;8.70;;
52104;SDS011;38103;42.776;23.112;2022-09-01T15:22:18;17.45;;;8.65;;
52104;SDS011;38103;42.776;23.112;2022-09-01T15:24:44;17.42;;;8.90;;
52104;SDS011;38103;42.776;23.112;2022-09-01T15:27:09;19.55;;;8.60;;
52104;SDS011;38103;42.776;23.112;2022-09-01T15:29:35;17.73;;;8.30;;
52104;SDS011;38103;42.776;23.112;2022-09-01T15:34:34;18.60;;;9.15;;
52104;SDS011;38103;42.776;23.112;2022-09-01T15:37:00;23.02;;;9.98;;
52104;SDS011;38103;42.776;23.112;2022-09-01T15:39:25;20.77;;;9.20;;
52104;SDS011;38103;42.776;23.112;2022-09-01T15:41:50;16.88;;;8.77;;
52104;SDS011;38103;42.776;23.112;2022-09-01T15:44:16;16.95;;;8.75;;
52104;SDS011;38103;42.776;23.112;2022-09-01T15:46:41;17.60;;;8.90;;
52104;SDS011;38103;42.776;23.112;2022-09-01T15:49:08;17.77;;;9.25;;
52104;SDS011;38103;42.776;23.112;2022-09-01T15:51:41;16.33;;;8.32;;
52104;SDS011;38103;42.776;23.112;2022-09-01T15:54:11;18.40;;;9.02;;
52104;SDS011;38103;42.776;23.112;2022-09-01T15:56:39;20.75;;;8.88;;
52104;SDS011;38103;42.776;23.112;2022-09-01T15:59:05;15.50;;;8.60;;
52104;SDS011;38103;42.776;23.112;2022-09-01T16:01:35;16.95;;;8.90;;
52104;SDS011;38103;42.776;23.112;2022-09-01T16:04:04;17.85;;;8.68;;
52104;SDS011;38103;42.776;23.112;2022-09-01T16:06:31;16.40;;;8.32;;
52104;SDS011;38103;42.776;23.112;2022-09-01T16:08:56;15.50;;;8.13;;
52104;SDS011;38103;42.776;23.112;2022-09-01T16:11:23;16.38;;;8.68;;
52104;SDS011;38103;42.776;23.112;2022-09-01T16:13:50;17.25;;;9.30;;
52104;SDS011;38103;42.776;23.112;2022-09-01T16:16:39;17.25;;;8.43;;
52104;SDS011;38103;42.776;23.112;2022-09-01T16:19:11;19.65;;;9.05;;
52104;SDS011;38103;42.776;23.112;2022-09-01T16:24:40;17.15;;;9.10;;
52104;SDS011;38103;42.776;23.112;2022-09-01T16:27:12;16.48;;;9.02;;
52104;SDS011;38103;42.776;23.112;2022-09-01T16:29:43;15.93;;;8.98;;